createdAt,value
2022-10-23T00:00:13.791Z,5.97
2022-10-23T00:02:41.252Z,8.03
2022-10-23T00:05:08.726Z,6.10
2022-10-23T00:07:35.821Z,7.07
2022-10-23T00:10:02.905Z,6.33
2022-10-23T00:12:30.006Z,7.90
2022-10-23T00:14:57.031Z,9.50
2022-10-23T00:17:24.100Z,9.60
2022-10-23T00:19:51.111Z,7.57
2022-10-23T00:22:18.195Z,6.90
2022-10-23T00:24:45.240Z,9.80
2022-10-23T00:27:12.346Z,6.87
2022-10-23T00:29:39.427Z,10.33
2022-10-23T00:32:06.513Z,8.27
2022-10-23T00:34:33.564Z,8.70
2022-10-23T00:37:00.607Z,8.63
2022-10-23T00:39:27.636Z,7.73
2022-10-23T00:41:54.680Z,7.67
2022-10-23T00:44:21.669Z,7.43
2022-10-23T00:46:49.110Z,7.43
2022-10-23T00:49:16.687Z,9.07
2022-10-23T00:51:51.150Z,9.17
2022-10-23T00:54:23.942Z,10.33
2022-10-23T00:56:53.050Z,10.67
2022-10-23T00:59:20.070Z,8.10
2022-10-23T01:01:47.250Z,6.63
2022-10-23T01:04:14.448Z,7.53
2022-10-23T01:06:44.637Z,9.07
2022-10-23T01:09:16.713Z,11.03
2022-10-23T01:11:50.824Z,7.33
2022-10-23T01:14:26.765Z,8.17
2022-10-23T01:16:53.771Z,9.30
2022-10-23T01:19:26.910Z,12.67
2022-10-23T01:22:12.020Z,8.07
2022-10-23T01:24:57.804Z,8.93
2022-10-23T01:27:26.702Z,7.67
2022-10-23T01:30:13.448Z,8.93
2022-10-23T01:32:45.547Z,9.30
2022-10-23T01:35:19.751Z,9.63
2022-10-23T01:37:48.518Z,7.00
2022-10-23T01:40:36.675Z,6.60
2022-10-23T01:43:09.843Z,7.60
2022-10-23T01:45:39.773Z,7.40
2022-10-23T01:48:08.160Z,8.63
2022-10-23T01:50:35.901Z,7.27
2022-10-23T01:53:04.271Z,8.43
2022-10-23T01:55:32.118Z,8.53
2022-10-23T01:58:00.176Z,7.10
2022-10-23T02:00:27.393Z,7.73
2022-10-23T02:02:55.462Z,9.67
2022-10-23T02:05:24.732Z,8.37
2022-10-23T02:07:52.248Z,8.87
2022-10-23T02:10:19.797Z,7.77
2022-10-23T02:12:58.750Z,7.80
2022-10-23T02:15:58.239Z,8.07
2022-10-23T02:18:25.232Z,8.70
2022-10-23T02:20:55.093Z,8.83
2022-10-23T02:23:26.759Z,8.47
2022-10-23T02:25:53.738Z,10.40
2022-10-23T02:28:24.488Z,9.13
2022-10-23T02:30:51.679Z,7.50
2022-10-23T02:33:19.071Z,6.50
2022-10-23T02:35:47.129Z,7.10
2022-10-23T02:38:29.469Z,9.17
2022-10-23T02:40:58.182Z,7.90
2022-10-23T02:43:28.112Z,7.97
2022-10-23T02:46:00.493Z,6.93
2022-10-23T02:48:35.374Z,8.20
2022-10-23T02:51:02.356Z,8.27
2022-10-23T02:53:41.271Z,9.07
2022-10-23T02:56:08.271Z,7.30
2022-10-23T02:58:35.292Z,8.67
2022-10-23T03:01:07.052Z,7.83
2022-10-23T03:03:40.291Z,7.67
2022-10-23T03:06:07.557Z,7.60
2022-10-23T03:08:52.801Z,6.93
2022-10-23T03:11:19.952Z,6.30
2022-10-23T03:13:47.070Z,7.40
2022-10-23T03:16:14.139Z,5.87
2022-10-23T03:18:41.175Z,6.53
2022-10-23T03:21:08.450Z,7.20
2022-10-23T03:23:35.568Z,7.77
2022-10-23T03:26:02.659Z,7.23
2022-10-23T03:28:29.705Z,8.40
2022-10-23T03:30:56.770Z,9.50
2022-10-23T03:33:23.967Z,8.67
2022-10-23T03:35:51.045Z,6.73
2022-10-23T03:38:18.084Z,7.27
2022-10-23T03:40:45.184Z,7.63
2022-10-23T03:43:12.237Z,9.43
2022-10-23T03:45:39.317Z,7.50
2022-10-23T03:48:06.770Z,9.00
2022-10-23T03:50:34.078Z,9.20
2022-10-23T03:53:01.159Z,7.77
2022-10-23T03:55:28.548Z,8.70
2022-10-23T03:57:55.875Z,7.70
2022-10-23T04:00:23.063Z,9.70
2022-10-23T04:02:50.214Z,7.43
2022-10-23T04:05:17.587Z,7.00
2022-10-23T04:07:44.605Z,9.07
2022-10-23T04:10:11.647Z,7.50
2022-10-23T04:12:38.747Z,7.57
2022-10-23T04:15:05.946Z,6.50
2022-10-23T04:17:33.154Z,9.20
2022-10-23T04:20:00.219Z,6.53
2022-10-23T04:22:28.495Z,7.40
2022-10-23T04:24:56.037Z,8.70
2022-10-23T04:27:23.410Z,7.67
2022-10-23T04:29:51.555Z,7.67
2022-10-23T04:32:19.399Z,7.77
2022-10-23T04:34:46.394Z,10.43
2022-10-23T04:37:13.455Z,6.73
2022-10-23T04:39:40.561Z,6.83
2022-10-23T04:42:07.599Z,7.83
2022-10-23T04:44:34.627Z,7.83
2022-10-23T04:47:01.686Z,6.33
2022-10-23T04:49:28.727Z,6.60
2022-10-23T04:51:55.763Z,8.07
2022-10-23T04:54:22.769Z,12.57
2022-10-23T04:56:49.801Z,7.47
2022-10-23T04:59:16.865Z,8.23
2022-10-23T05:01:43.938Z,9.93
2022-10-23T05:04:11.073Z,6.97
2022-10-23T05:06:38.100Z,7.00
2022-10-23T05:09:05.143Z,8.03
2022-10-23T05:11:32.149Z,8.97
2022-10-23T05:13:59.198Z,7.33
2022-10-23T05:16:33.611Z,7.83
2022-10-23T05:19:00.921Z,8.07
2022-10-23T05:21:30.463Z,7.80
2022-10-23T05:23:57.670Z,6.73
2022-10-23T05:26:24.750Z,8.33
2022-10-23T05:28:51.801Z,6.50
2022-10-23T05:31:20.760Z,9.80
2022-10-23T05:33:47.852Z,8.53
2022-10-23T05:36:15.469Z,9.40
2022-10-23T05:38:42.598Z,7.90
2022-10-23T05:41:09.831Z,9.37
2022-10-23T05:43:36.851Z,11.10
2022-10-23T05:46:07.056Z,11.63
2022-10-23T05:48:35.407Z,6.83
2022-10-23T05:51:03.484Z,9.77
2022-10-23T05:53:30.513Z,8.37
2022-10-23T05:55:57.620Z,8.70
2022-10-23T05:58:24.640Z,14.67
2022-10-23T06:00:51.696Z,9.27
2022-10-23T06:03:18.726Z,8.53
2022-10-23T06:05:49.950Z,7.27
2022-10-23T06:08:17.060Z,8.13
2022-10-23T06:10:44.108Z,7.37
2022-10-23T06:13:11.211Z,9.43
2022-10-23T06:15:38.292Z,7.37
2022-10-23T06:18:05.531Z,8.03
2022-10-23T06:20:32.634Z,10.37
2022-10-23T06:22:59.684Z,7.73
2022-10-23T06:25:26.711Z,7.77
2022-10-23T06:27:53.744Z,7.67
2022-10-23T06:30:20.790Z,8.53
2022-10-23T06:32:47.982Z,9.33
2022-10-23T06:35:15.417Z,12.93
2022-10-23T06:37:42.522Z,12.53
2022-10-23T06:40:09.792Z,11.10
2022-10-23T06:42:36.875Z,8.40
2022-10-23T06:45:07.170Z,10.97
2022-10-23T06:47:34.368Z,7.60
2022-10-23T06:50:01.395Z,8.07
2022-10-23T06:52:47.802Z,7.50
2022-10-23T06:55:15.351Z,7.40
2022-10-23T06:57:42.807Z,9.87
2022-10-23T07:00:10.841Z,10.77
2022-10-23T07:02:37.896Z,8.70
2022-10-23T07:05:07.709Z,9.07
2022-10-23T07:07:37.011Z,7.93
2022-10-23T07:10:04.537Z,8.57
2022-10-23T07:12:31.648Z,12.37
2022-10-23T07:14:58.679Z,9.33
2022-10-23T07:17:25.744Z,7.20
2022-10-23T07:19:52.755Z,9.37
2022-10-23T07:22:19.796Z,10.07
2022-10-23T07:24:46.819Z,9.43
2022-10-23T07:27:13.856Z,8.83
2022-10-23T07:29:42.009Z,8.60
2022-10-23T07:32:09.245Z,10.17
2022-10-23T07:34:36.874Z,10.63
2022-10-23T07:37:03.904Z,7.57
2022-10-23T07:39:30.923Z,11.73
2022-10-23T07:41:57.959Z,8.27
2022-10-23T07:44:27.621Z,8.73
2022-10-23T07:46:54.945Z,8.43
2022-10-23T07:49:21.980Z,8.07
2022-10-23T07:51:51.467Z,7.87
2022-10-23T07:54:18.842Z,8.77
2022-10-23T07:56:45.884Z,8.17
2022-10-23T07:59:13.594Z,7.13
2022-10-23T08:01:42.594Z,8.37
2022-10-23T08:04:10.871Z,8.70
2022-10-23T08:06:38.329Z,7.70
2022-10-23T08:09:06.784Z,7.60
2022-10-23T08:11:35.602Z,6.77
2022-10-23T08:14:06.667Z,6.77
2022-10-23T08:16:34.654Z,6.17
2022-10-23T08:19:01.692Z,5.80
2022-10-23T08:21:29.043Z,7.20
2022-10-23T08:23:57.183Z,6.00
2022-10-23T08:26:24.625Z,5.47
2022-10-23T08:28:52.192Z,5.90
2022-10-23T08:31:20.474Z,7.60
2022-10-23T08:36:21.497Z,6.40
2022-10-23T08:38:48.973Z,7.57
2022-10-23T08:41:30.542Z,4.77
2022-10-23T08:44:03.142Z,5.77
2022-10-23T08:46:32.064Z,5.43
2022-10-23T08:49:16.974Z,6.40
2022-10-23T08:51:45.826Z,6.53
2022-10-23T08:54:28.137Z,6.33
2022-10-23T08:56:59.002Z,6.43
2022-10-23T08:59:39.773Z,5.60
2022-10-23T09:02:25.049Z,5.67
2022-10-23T09:04:53.217Z,4.93
2022-10-23T09:07:23.424Z,12.90
2022-10-23T09:10:13.491Z,5.20
2022-10-23T09:12:41.274Z,6.17
2022-10-23T09:15:08.309Z,4.43
2022-10-23T09:17:37.926Z,7.03
2022-10-23T09:20:17.284Z,6.20
2022-10-23T09:22:44.858Z,7.00
2022-10-23T09:25:19.574Z,5.60
2022-10-23T09:27:49.636Z,5.33
2022-10-23T09:30:28.122Z,5.47
2022-10-23T09:32:55.190Z,6.33
2022-10-23T09:35:26.862Z,6.83
2022-10-23T09:37:54.325Z,4.43
2022-10-23T09:40:39.897Z,4.63
2022-10-23T09:43:17.558Z,5.23
2022-10-23T09:45:44.681Z,4.17
2022-10-23T09:48:19.792Z,5.57
2022-10-23T09:50:49.560Z,3.93
2022-10-23T09:53:19.521Z,4.03
2022-10-23T09:55:52.077Z,4.93
2022-10-23T09:58:25.691Z,3.97
2022-10-23T10:00:54.743Z,4.07
2022-10-23T10:03:23.522Z,3.97
2022-10-23T10:06:01.393Z,6.47
2022-10-23T10:08:40.691Z,5.10
2022-10-23T10:11:13.186Z,7.63
2022-10-23T10:13:50.451Z,6.37
2022-10-23T10:16:26.903Z,5.07
2022-10-23T10:19:01.450Z,5.77
2022-10-23T10:21:30.711Z,5.50
2022-10-23T10:24:05.886Z,7.80
2022-10-23T10:26:43.793Z,4.90
2022-10-23T10:29:14.696Z,5.00
2022-10-23T10:31:53.024Z,4.60
2022-10-23T10:34:29.095Z,5.07
2022-10-23T10:36:57.117Z,8.23
2022-10-23T10:39:39.690Z,6.23
2022-10-23T10:42:06.750Z,4.50
2022-10-23T10:44:52.798Z,5.63
2022-10-23T10:47:23.223Z,4.03
2022-10-23T10:50:09.055Z,3.50
2022-10-23T10:52:52.812Z,5.47
2022-10-23T10:55:33.005Z,4.77
2022-10-23T10:58:03.635Z,5.77
2022-10-23T11:00:31.614Z,6.63
2022-10-23T11:03:01.346Z,3.93
2022-10-23T11:05:31.710Z,4.27
2022-10-23T11:08:00.780Z,4.73
2022-10-23T11:10:29.085Z,4.70
2022-10-23T11:12:56.359Z,3.37
2022-10-23T11:15:26.642Z,6.20
2022-10-23T11:17:57.437Z,3.00
2022-10-23T11:20:43.337Z,3.33
2022-10-23T11:23:29.105Z,3.83
2022-10-23T11:25:59.324Z,3.17
2022-10-23T11:28:32.179Z,4.03
2022-10-23T11:31:11.862Z,4.37
2022-10-23T11:33:58.025Z,4.50
2022-10-23T11:36:43.983Z,4.03
2022-10-23T11:39:17.692Z,4.47
2022-10-23T11:41:49.902Z,5.90
2022-10-23T11:44:24.301Z,5.20
2022-10-23T11:47:00.536Z,3.67
2022-10-23T11:49:27.558Z,3.87
2022-10-23T11:52:01.334Z,3.50
2022-10-23T11:54:28.448Z,4.40
2022-10-23T11:56:57.592Z,3.80
2022-10-23T11:59:32.258Z,3.70
2022-10-23T12:02:00.631Z,4.30
2022-10-23T12:04:31.410Z,4.27
2022-10-23T12:07:00.710Z,6.23
2022-10-23T12:09:33.015Z,4.03
2022-10-23T12:12:03.166Z,4.07
2022-10-23T12:14:32.572Z,5.90
2022-10-23T12:16:59.976Z,5.27
2022-10-23T12:19:28.655Z,3.73
2022-10-23T12:21:57.953Z,3.37
2022-10-23T12:24:31.856Z,3.80
2022-10-23T12:27:01.905Z,5.50
2022-10-23T12:29:29.237Z,4.23
2022-10-23T12:32:09.571Z,3.73
2022-10-23T12:34:46.286Z,3.80
2022-10-23T12:37:16.425Z,4.33
2022-10-23T12:39:43.591Z,3.50
2022-10-23T12:42:22.849Z,5.57
2022-10-23T12:44:59.879Z,5.93
2022-10-23T12:47:27.223Z,3.97
2022-10-23T12:49:54.356Z,6.13
2022-10-23T12:52:21.527Z,4.13
2022-10-23T12:54:50.742Z,4.07
2022-10-23T12:57:30.084Z,3.77
2022-10-23T12:59:58.428Z,3.90
2022-10-23T13:02:27.277Z,3.83
2022-10-23T13:04:55.673Z,4.13
2022-10-23T13:07:30.241Z,3.90
2022-10-23T13:09:58.400Z,3.33
2022-10-23T13:12:27.180Z,4.80
2022-10-23T13:15:03.500Z,3.60
2022-10-23T13:17:35.536Z,3.50
2022-10-23T13:20:17.905Z,3.83
2022-10-23T13:22:46.342Z,3.80
2022-10-23T13:25:24.350Z,3.37
2022-10-23T13:27:51.548Z,4.10
2022-10-23T13:30:28.745Z,6.73
2022-10-23T13:32:56.044Z,4.07
2022-10-23T13:35:23.735Z,3.30
2022-10-23T13:37:51.168Z,3.57
2022-10-23T13:40:25.801Z,4.07
2022-10-23T13:42:57.123Z,4.30
2022-10-23T13:45:25.824Z,3.53
2022-10-23T13:47:53.102Z,3.93
2022-10-23T13:50:20.752Z,3.70
2022-10-23T13:52:47.886Z,3.83
2022-10-23T13:55:23.763Z,5.03
2022-10-23T13:57:50.932Z,4.53
2022-10-23T14:00:18.133Z,4.63
2022-10-23T14:02:45.484Z,4.77
2022-10-23T14:05:12.960Z,4.80
2022-10-23T14:07:40.148Z,4.60
2022-10-23T14:10:07.649Z,5.50
2022-10-23T14:12:44.624Z,9.80
2022-10-23T14:15:12.265Z,5.27
2022-10-23T14:17:39.325Z,3.67
2022-10-23T14:20:06.712Z,4.80
2022-10-23T14:22:33.922Z,4.93
2022-10-23T14:25:00.972Z,3.83
2022-10-23T14:27:29.394Z,7.47
2022-10-23T14:29:56.804Z,5.23
2022-10-23T14:32:23.894Z,7.13
2022-10-23T14:34:51.863Z,4.57
2022-10-23T14:37:19.529Z,5.27
2022-10-23T14:39:50.034Z,4.57
2022-10-23T14:42:17.649Z,6.27
2022-10-23T14:44:45.013Z,5.47
2022-10-23T14:47:12.328Z,5.47
2022-10-23T14:49:40.163Z,5.50
2022-10-23T14:52:07.597Z,4.70
2022-10-23T14:54:36.332Z,5.10
2022-10-23T14:57:03.962Z,5.20
2022-10-23T14:59:31.040Z,6.03
2022-10-23T15:01:58.079Z,6.63
2022-10-23T15:04:25.185Z,6.60
2022-10-23T15:06:52.416Z,4.93
2022-10-23T15:09:20.211Z,5.00
2022-10-23T15:11:47.680Z,4.50
2022-10-23T15:14:14.741Z,5.43
2022-10-23T15:16:42.009Z,5.13
2022-10-23T15:19:17.096Z,5.00
2022-10-23T15:21:45.858Z,4.80
2022-10-23T15:24:12.908Z,4.53
2022-10-23T15:26:42.730Z,5.57
2022-10-23T15:29:11.144Z,5.60
2022-10-23T15:31:38.201Z,4.93
2022-10-23T15:34:06.267Z,4.63
2022-10-23T15:36:33.395Z,5.03
2022-10-23T15:39:00.519Z,6.63
2022-10-23T15:41:31.990Z,8.50
2022-10-23T15:43:59.904Z,5.07
2022-10-23T15:46:27.009Z,4.50
2022-10-23T15:48:54.139Z,5.77
2022-10-23T15:51:21.388Z,5.90
2022-10-23T15:53:48.813Z,5.33
2022-10-23T15:56:16.166Z,7.13
2022-10-23T15:58:43.204Z,9.67
2022-10-23T16:01:10.534Z,6.80
2022-10-23T16:03:38.592Z,5.90
2022-10-23T16:06:10.477Z,5.63
2022-10-23T16:08:37.952Z,5.30
2022-10-23T16:11:05.567Z,5.70
2022-10-23T16:13:32.582Z,5.67
2022-10-23T16:16:03.311Z,5.50
2022-10-23T16:18:30.391Z,6.23
2022-10-23T16:20:57.480Z,8.07
2022-10-23T16:23:24.512Z,5.87
2022-10-23T16:25:51.558Z,7.47
2022-10-23T16:28:18.592Z,5.77
2022-10-23T16:30:46.316Z,5.43
2022-10-23T16:33:13.926Z,6.10
2022-10-23T16:35:41.045Z,5.13
2022-10-23T16:38:08.102Z,6.43
2022-10-23T16:40:35.188Z,5.17
2022-10-23T16:43:02.204Z,6.87
2022-10-23T16:45:29.246Z,6.77
2022-10-23T16:47:56.263Z,7.07
2022-10-23T16:50:23.290Z,5.80
2022-10-23T16:52:53.274Z,6.20
2022-10-23T16:55:22.598Z,6.37
2022-10-23T16:57:49.649Z,7.63
2022-10-23T17:00:18.523Z,6.33
2022-10-23T17:02:45.755Z,6.23
2022-10-23T17:05:13.024Z,7.20
2022-10-23T17:07:40.094Z,7.67
2022-10-23T17:10:07.403Z,7.30
2022-10-23T17:12:34.444Z,8.60
2022-10-23T17:15:01.470Z,11.07
2022-10-23T17:17:28.503Z,7.50
2022-10-23T17:19:55.576Z,8.67
2022-10-23T17:22:22.734Z,6.63
2022-10-23T17:24:52.938Z,7.77
2022-10-23T17:27:20.898Z,7.97
2022-10-23T17:29:47.959Z,7.27
2022-10-23T17:32:15.163Z,8.17
2022-10-23T17:34:42.234Z,13.03
2022-10-23T17:37:10.154Z,8.33
2022-10-23T17:39:37.322Z,9.00
2022-10-23T17:42:04.429Z,8.10
2022-10-23T17:44:31.560Z,10.07
2022-10-23T17:46:58.707Z,9.03
2022-10-23T17:49:25.926Z,9.40
2022-10-23T17:51:54.289Z,9.00
2022-10-23T17:54:21.690Z,9.80
2022-10-23T17:56:48.761Z,9.43
2022-10-23T17:59:17.376Z,9.73
2022-10-23T18:01:46.343Z,8.87
2022-10-23T18:04:13.494Z,10.30
2022-10-23T18:06:45.244Z,9.47
2022-10-23T18:09:13.222Z,9.90
2022-10-23T18:11:45.263Z,9.97
2022-10-23T18:14:14.375Z,10.93
2022-10-23T18:16:41.757Z,10.67
2022-10-23T18:19:08.876Z,9.50
2022-10-23T18:21:36.372Z,16.90
2022-10-23T18:24:03.825Z,10.70
2022-10-23T18:26:34.783Z,12.00
2022-10-23T18:29:04.172Z,11.10
2022-10-23T18:31:31.301Z,12.67
2022-10-23T18:33:59.641Z,10.37
2022-10-23T18:36:28.146Z,14.07
2022-10-23T18:41:27.974Z,11.07
2022-10-23T18:43:55.505Z,10.40
2022-10-23T18:46:22.986Z,11.70
2022-10-23T18:48:53.583Z,10.23
2022-10-23T18:51:22.544Z,11.07
2022-10-23T18:53:50.020Z,11.97
2022-10-23T18:56:22.217Z,12.23
2022-10-23T18:58:53.091Z,12.13
2022-10-23T19:01:20.488Z,11.17
2022-10-23T19:03:48.082Z,13.73
2022-10-23T19:06:15.915Z,12.93
2022-10-23T19:08:44.333Z,11.07
2022-10-23T19:11:11.895Z,10.10
2022-10-23T19:13:40.279Z,13.83
2022-10-23T19:16:09.358Z,12.07
2022-10-23T19:18:37.300Z,11.77
2022-10-23T19:21:05.974Z,11.20
2022-10-23T19:23:36.228Z,13.37
2022-10-23T19:26:08.892Z,12.50
2022-10-23T19:28:40.295Z,10.90
2022-10-23T19:31:09.787Z,12.33
2022-10-23T19:33:38.883Z,12.30
2022-10-23T19:36:08.873Z,12.93
2022-10-23T19:38:40.258Z,13.07
2022-10-23T19:41:07.577Z,15.13
2022-10-23T19:43:34.824Z,11.97
2022-10-23T19:46:04.979Z,15.63
2022-10-23T19:48:34.905Z,13.70
2022-10-23T19:51:02.216Z,12.33
2022-10-23T19:53:29.374Z,13.80
2022-10-23T19:56:06.760Z,14.17
2022-10-23T19:58:34.029Z,13.47
2022-10-23T20:01:07.376Z,11.47
2022-10-23T20:03:34.472Z,14.67
2022-10-23T20:06:01.518Z,12.50
2022-10-23T20:08:32.644Z,13.80
2022-10-23T20:11:02.129Z,12.53
2022-10-23T20:13:29.197Z,13.03
2022-10-23T20:15:56.295Z,12.07
2022-10-23T20:18:23.374Z,12.60
2022-10-23T20:20:50.435Z,11.53
2022-10-23T20:23:17.481Z,12.43
2022-10-23T20:25:44.562Z,11.07
2022-10-23T20:28:14.360Z,11.37
2022-10-23T20:30:42.629Z,9.87
2022-10-23T20:33:09.997Z,12.17
2022-10-23T20:35:41.092Z,10.97
2022-10-23T20:38:08.942Z,12.53
2022-10-23T20:40:36.580Z,12.23
2022-10-23T20:43:03.650Z,10.03
2022-10-23T20:45:30.716Z,11.97
2022-10-23T20:47:57.782Z,12.83
2022-10-23T20:50:24.905Z,9.07
2022-10-23T20:52:52.132Z,8.47
2022-10-23T20:55:19.743Z,10.57
2022-10-23T20:57:47.219Z,9.50
2022-10-23T21:00:15.539Z,9.37
2022-10-23T21:02:45.792Z,10.07
2022-10-23T21:05:14.296Z,15.93
2022-10-23T21:07:41.328Z,9.37
2022-10-23T21:10:08.540Z,9.03
2022-10-23T21:12:35.633Z,10.53
2022-10-23T21:15:02.648Z,10.77
2022-10-23T21:17:35.221Z,9.00
2022-10-23T21:20:02.751Z,10.10
2022-10-23T21:22:29.784Z,9.57
2022-10-23T21:24:58.359Z,9.17
2022-10-23T21:27:25.371Z,10.20
2022-10-23T21:29:52.445Z,13.37
2022-10-23T21:32:20.747Z,9.03
2022-10-23T21:34:47.937Z,14.37
2022-10-23T21:37:15.332Z,8.97
2022-10-23T21:39:43.163Z,11.60
2022-10-23T21:42:10.316Z,13.33
2022-10-23T21:44:37.444Z,10.43
2022-10-23T21:47:04.535Z,11.00
2022-10-23T21:49:31.657Z,11.27
2022-10-23T21:51:58.673Z,10.23
2022-10-23T21:54:25.753Z,10.60
2022-10-23T21:56:56.224Z,15.73
2022-10-23T21:59:25.881Z,10.93
2022-10-23T22:01:54.970Z,12.60
2022-10-23T22:04:22.327Z,13.17
2022-10-23T22:06:49.847Z,12.07
2022-10-23T22:09:19.209Z,11.47
2022-10-23T22:11:46.454Z,11.87
2022-10-23T22:14:13.515Z,9.40
2022-10-23T22:16:41.883Z,16.30
2022-10-23T22:19:09.146Z,10.60
2022-10-23T22:21:36.177Z,16.73
2022-10-23T22:26:32.466Z,12.93
2022-10-23T22:29:00.948Z,11.50
2022-10-23T22:31:29.627Z,11.27
2022-10-23T22:33:56.775Z,12.60
2022-10-23T22:36:24.462Z,12.20
2022-10-23T22:38:51.608Z,12.47
2022-10-23T22:41:20.942Z,12.97
2022-10-23T22:43:48.178Z,11.50
2022-10-23T22:46:16.976Z,11.00
2022-10-23T22:48:44.379Z,10.67
2022-10-23T22:51:12.590Z,10.87
2022-10-23T22:53:39.659Z,10.87
2022-10-23T22:56:10.589Z,9.17
2022-10-23T22:58:37.839Z,10.53
2022-10-23T23:01:10.087Z,10.53
2022-10-23T23:03:38.085Z,9.13
2022-10-23T23:06:06.486Z,11.30
2022-10-23T23:08:34.041Z,8.63
2022-10-23T23:11:01.437Z,10.60
2022-10-23T23:13:28.849Z,10.73
2022-10-23T23:15:56.049Z,10.20
2022-10-23T23:18:23.353Z,9.33
2022-10-23T23:20:50.420Z,10.03
2022-10-23T23:23:17.790Z,9.40
2022-10-23T23:25:46.580Z,10.03
2022-10-23T23:28:14.532Z,11.60
2022-10-23T23:30:42.097Z,10.07
2022-10-23T23:33:09.778Z,13.33
2022-10-23T23:35:40.631Z,11.07
2022-10-23T23:38:07.720Z,12.17
2022-10-23T23:40:34.806Z,11.40
2022-10-23T23:43:01.973Z,12.10
2022-10-23T23:45:29.029Z,11.80
2022-10-23T23:47:56.054Z,12.47
2022-10-23T23:50:23.142Z,12.30
2022-10-23T23:52:50.197Z,11.53
2022-10-23T23:55:17.304Z,12.73
2022-10-23T23:57:44.646Z,11.00
